Time;durP1;ratioP1;P1;durP2;ratioP2;P2;SDS_P1;SDS_P2;PMS_P1;PMS_P2;Temp;Humidity;BMP_temperature;BMP_pressure;BME280_temperature;BME280_humidity;BME280_pressure;Samples;Min_cycle;Max_cycle;Signal;HPM_P1;HPM_P2
2022/04/27 00:00:04;;;;;;;17.35;9.25;;;2.20;99.90;;;;;;5123840;28;20060;-82
2022/04/27 00:02:30;;;;;;;20.63;10.35;;;2.20;99.90;;;;;;5124897;28;20055;-82
2022/04/27 00:04:57;;;;;;;19.17;9.43;;;2.20;99.90;;;;;;5123675;28;20055;-82
2022/04/27 00:07:23;;;;;;;22.25;9.88;;;2.20;99.90;;;;;;5125430;28;20051;-82
2022/04/27 00:09:48;;;;;;;25.02;10.70;;;2.20;99.90;;;;;;5124937;28;20044;-81
2022/04/27 00:12:14;;;;;;;25.65;10.88;;;2.10;99.90;;;;;;5125113;28;20472;-82
2022/04/27 00:14:39;;;;;;;25.30;12.75;;;2.10;99.90;;;;;;5124035;28;20101;-81
2022/04/27 00:17:05;;;;;;;28.90;12.63;;;2.10;99.90;;;;;;5124400;28;20075;-82
2022/04/27 00:19:33;;;;;;;23.70;11.52;;;2.00;99.90;;;;;;5123947;28;20040;-82
2022/04/27 00:21:59;;;;;;;20.40;12.20;;;2.10;99.90;;;;;;5125113;28;20055;-82
2022/04/27 00:24:25;;;;;;;22.67;12.25;;;2.10;99.90;;;;;;5125161;28;20040;-82
2022/04/27 00:26:51;;;;;;;28.20;12.27;;;2.10;99.90;;;;;;5125262;28;20046;-82
2022/04/27 00:29:17;;;;;;;20.38;12.18;;;2.10;99.90;;;;;;5125138;28;20055;-82
2022/04/27 00:31:43;;;;;;;26.02;11.90;;;2.20;99.90;;;;;;5125476;28;20054;-82
2022/04/27 00:34:08;;;;;;;21.73;12.45;;;2.20;99.90;;;;;;5128927;28;20125;-82
2022/04/27 00:36:35;;;;;;;18.90;11.90;;;2.20;99.90;;;;;;5129411;28;20036;-82
2022/04/27 00:39:02;;;;;;;30.50;12.68;;;2.20;99.90;;;;;;5127862;28;20104;-82
2022/04/27 00:41:27;;;;;;;22.90;12.27;;;2.30;99.90;;;;;;5128577;28;20039;-81
2022/04/27 00:43:54;;;;;;;20.60;11.80;;;2.30;99.90;;;;;;5129518;28;20392;-82
2022/04/27 00:46:20;;;;;;;26.33;13.35;;;2.40;99.90;;;;;;5129571;28;20040;-82
2022/04/27 00:48:46;;;;;;;24.60;11.57;;;2.50;99.90;;;;;;5128542;28;20503;-81
2022/04/27 00:51:19;;;;;;;22.13;11.55;;;2.60;99.90;;;;;;5127857;28;20470;-82
2022/04/27 00:53:45;;;;;;;21.17;12.05;;;2.60;99.90;;;;;;5128497;28;20048;-81
2022/04/27 00:56:14;;;;;;;22.45;11.88;;;2.70;99.90;;;;;;5126744;28;20071;-81
2022/04/27 00:58:39;;;;;;;26.98;11.57;;;2.70;99.90;;;;;;5129380;28;20049;-81
2022/04/27 01:01:05;;;;;;;26.70;12.35;;;2.70;99.90;;;;;;5128375;28;20088;-81
2022/04/27 01:03:35;;;;;;;20.10;11.48;;;2.80;99.90;;;;;;5128536;28;20065;-81
2022/04/27 01:06:02;;;;;;;19.52;11.00;;;2.80;99.90;;;;;;5129738;28;20039;-81
2022/04/27 01:08:27;;;;;;;21.35;12.45;;;2.80;99.90;;;;;;5131992;28;20039;-81
2022/04/27 01:10:53;;;;;;;23.25;11.70;;;2.90;99.90;;;;;;5129196;28;20475;-80
2022/04/27 01:13:19;;;;;;;19.35;11.55;;;2.90;99.90;;;;;;5127708;27;20047;-82
2022/04/27 01:15:44;;;;;;;28.20;12.60;;;2.80;99.90;;;;;;5128051;28;20063;-81
2022/04/27 01:18:10;;;;;;;22.10;12.27;;;2.80;99.90;;;;;;5128038;28;20065;-80
2022/04/27 01:20:38;;;;;;;23.65;12.13;;;2.70;99.90;;;;;;5127873;28;20036;-81
2022/04/27 01:23:07;;;;;;;25.60;13.48;;;2.70;99.90;;;;;;5128064;28;20523;-82
2022/04/27 01:25:56;;;;;;;20.17;12.25;;;2.70;99.90;;;;;;5107512;28;20044;-81
2022/04/27 01:28:29;;;;;;;23.35;11.40;;;2.70;99.90;;;;;;5107663;28;20044;-81
2022/04/27 01:31:00;;;;;;;23.77;11.93;;;2.70;99.90;;;;;;5107269;28;20052;-81
2022/04/27 01:33:27;;;;;;;22.25;12.57;;;2.80;99.90;;;;;;5107382;28;20105;-81
2022/04/27 01:35:53;;;;;;;22.92;11.43;;;2.80;99.90;;;;;;5107137;28;20040;-81
2022/04/27 01:38:19;;;;;;;25.10;13.05;;;2.80;99.90;;;;;;5107048;28;20087;-81
2022/04/27 01:40:46;;;;;;;26.08;13.15;;;2.90;99.90;;;;;;5106370;28;20473;-81
2022/04/27 01:43:15;;;;;;;22.70;11.95;;;3.00;99.90;;;;;;5106302;28;20055;-81
2022/04/27 01:45:45;;;;;;;21.67;11.60;;;3.00;99.90;;;;;;5105158;28;20063;-81
2022/04/27 01:48:11;;;;;;;19.88;12.35;;;3.10;99.90;;;;;;5105761;28;20392;-81
2022/04/27 01:50:37;;;;;;;19.70;10.43;;;3.20;99.90;;;;;;5103548;28;20126;-82
2022/04/27 01:55:48;;;;;;;19.80;12.60;;;3.30;99.90;;;;;;5139460;22;20048;-80
2022/04/27 01:58:14;;;;;;;21.25;10.95;;;3.10;99.90;;;;;;5027783;28;20050;-80
2022/04/27 02:00:39;;;;;;;19.55;11.45;;;3.40;99.90;;;;;;5036614;28;20045;-81
2022/04/27 02:03:05;;;;;;;25.13;11.70;;;3.50;99.90;;;;;;5036908;28;20049;-80
2022/04/27 02:05:31;;;;;;;26.88;11.65;;;3.60;99.90;;;;;;5034603;28;20041;-81
2022/04/27 02:07:57;;;;;;;23.40;11.45;;;3.60;99.90;;;;;;5043414;28;20029;-80
2022/04/27 02:10:23;;;;;;;24.08;13.75;;;3.70;99.90;;;;;;5041332;28;20045;-82
2022/04/27 02:12:49;;;;;;;21.50;12.00;;;3.70;99.90;;;;;;5056050;28;20461;-81
2022/04/27 02:15:14;;;;;;;19.35;11.98;;;3.70;99.90;;;;;;5058090;28;20037;-81
2022/04/27 02:17:40;;;;;;;23.80;12.00;;;3.80;99.90;;;;;;5057371;28;20485;-81
2022/04/27 02:20:06;;;;;;;20.77;12.50;;;3.80;99.90;;;;;;5039648;28;20044;-81
2022/04/27 02:22:35;;;;;;;21.10;11.40;;;3.90;99.90;;;;;;5057510;28;20048;-81
2022/04/27 02:25:02;;;;;;;18.15;11.27;;;4.00;99.90;;;;;;5057465;28;20041;-80
2022/04/27 02:27:28;;;;;;;20.05;11.52;;;4.00;99.90;;;;;;5048699;28;20049;-81
2022/04/27 02:29:55;;;;;;;23.27;11.68;;;4.00;99.90;;;;;;5037129;28;20045;-81
2022/04/27 02:32:20;;;;;;;22.60;11.45;;;4.00;99.90;;;;;;5016672;28;20168;-81
2022/04/27 02:34:46;;;;;;;25.83;12.45;;;4.00;99.90;;;;;;5018011;28;20518;-82
2022/04/27 02:37:14;;;;;;;19.95;11.98;;;4.00;99.90;;;;;;5075298;28;20385;-81
2022/04/27 02:39:40;;;;;;;18.38;11.75;;;4.00;99.90;;;;;;5061146;28;20385;-81
2022/04/27 02:42:06;;;;;;;19.80;11.38;;;4.00;99.90;;;;;;5068136;28;20037;-79
2022/04/27 02:44:32;;;;;;;24.05;13.13;;;4.00;99.90;;;;;;5069014;28;20044;-79
2022/04/27 02:46:57;;;;;;;18.45;11.77;;;3.90;99.90;;;;;;5063562;28;20041;-80
2022/04/27 02:52:07;;;;;;;21.92;11.15;;;3.90;99.90;;;;;;5049772;28;20054;-80
2022/04/27 02:54:33;;;;;;;19.65;12.45;;;4.00;99.90;;;;;;5049050;28;20091;-81
2022/04/27 02:56:59;;;;;;;21.65;11.90;;;4.50;99.90;;;;;;5040615;28;20037;-80
2022/04/27 02:59:24;;;;;;;20.92;12.68;;;4.00;99.90;;;;;;5036366;28;20042;-79
2022/04/27 03:01:50;;;;;;;25.27;13.85;;;4.00;99.90;;;;;;5036746;28;20138;-81
2022/04/27 03:04:15;;;;;;;23.92;13.90;;;4.10;99.90;;;;;;5069124;28;20052;-80
2022/04/27 03:06:43;;;;;;;21.60;12.57;;;4.10;99.90;;;;;;5037183;28;20486;-80
2022/04/27 03:09:09;;;;;;;17.52;12.27;;;4.10;99.90;;;;;;5034102;28;20056;-80
2022/04/27 03:11:34;;;;;;;21.55;12.27;;;4.20;99.90;;;;;;5033716;28;20045;-80
2022/04/27 03:14:00;;;;;;;23.55;11.85;;;4.20;99.90;;;;;;5033877;28;20041;-82
2022/04/27 03:16:25;;;;;;;20.90;12.32;;;4.20;99.90;;;;;;5033896;28;20041;-81
2022/04/27 03:18:51;;;;;;;24.63;12.65;;;4.30;99.90;;;;;;5033532;28;20041;-82
2022/04/27 03:21:17;;;;;;;19.45;11.82;;;4.30;99.90;;;;;;5033875;28;20080;-80
2022/04/27 03:23:45;;;;;;;26.48;13.05;;;4.40;99.90;;;;;;5035494;28;20068;-82
2022/04/27 03:26:11;;;;;;;23.63;12.68;;;4.40;99.90;;;;;;5036904;28;20049;-81
2022/04/27 03:28:37;;;;;;;23.23;12.68;;;4.40;99.90;;;;;;5036864;28;20390;-81
2022/04/27 03:31:02;;;;;;;20.20;11.40;;;4.40;99.90;;;;;;5036574;28;20145;-80
2022/04/27 03:33:28;;;;;;;19.55;11.50;;;4.50;99.90;;;;;;5035933;28;20053;-81
2022/04/27 03:35:54;;;;;;;21.38;11.88;;;4.40;99.90;;;;;;5018902;28;20049;-81
2022/04/27 03:38:19;;;;;;;23.05;12.10;;;4.50;99.90;;;;;;5036819;28;20450;-81
2022/04/27 03:40:47;;;;;;;18.80;11.48;;;4.50;99.90;;;;;;5036287;28;20120;-82
2022/04/27 03:43:15;;;;;;;22.70;12.30;;;4.50;99.90;;;;;;5036130;28;20045;-81
2022/04/27 03:45:41;;;;;;;20.45;12.73;;;4.50;99.90;;;;;;5034748;28;20033;-80
2022/04/27 03:48:07;;;;;;;22.83;13.27;;;4.50;99.90;;;;;;5036785;28;20042;-81
2022/04/27 03:50:33;;;;;;;21.00;12.95;;;4.50;99.90;;;;;;5036658;28;20080;-80
2022/04/27 03:52:59;;;;;;;19.38;12.05;;;4.50;99.90;;;;;;5037548;28;20054;-80
2022/04/27 03:55:28;;;;;;;27.48;12.73;;;4.50;99.90;;;;;;5037005;28;20053;-80
2022/04/27 03:57:54;;;;;;;22.45;12.23;;;4.50;99.90;;;;;;5044252;28;20057;-83
2022/04/27 04:00:20;;;;;;;25.90;14.23;;;4.60;99.90;;;;;;5057808;28;20049;-83
2022/04/27 04:02:45;;;;;;;21.95;11.90;;;4.70;99.90;;;;;;5057779;28;20051;-82
2022/04/27 04:05:14;;;;;;;20.90;11.90;;;4.60;99.90;;;;;;5057608;28;20017;-82
2022/04/27 04:07:40;;;;;;;22.45;12.32;;;4.60;99.90;;;;;;5057404;28;20061;-82
2022/04/27 04:10:06;;;;;;;25.05;13.27;;;4.70;99.90;;;;;;5057063;28;20040;-81
2022/04/27 04:12:32;;;;;;;19.80;12.02;;;4.70;99.90;;;;;;5056262;28;20282;-81
2022/04/27 04:14:57;;;;;;;18.98;11.88;;;4.70;99.90;;;;;;5036262;28;20045;-81
2022/04/27 04:17:23;;;;;;;22.13;12.20;;;4.70;99.90;;;;;;5035878;28;20042;-81
2022/04/27 04:19:48;;;;;;;22.23;12.00;;;4.70;99.90;;;;;;5035827;28;20038;-81
2022/04/27 04:22:14;;;;;;;22.75;12.13;;;4.80;99.90;;;;;;5034964;28;20053;-81
2022/04/27 04:28:29;;;;;;;20.15;12.02;;;4.80;99.90;;;;;;5033885;28;20033;-81
2022/04/27 04:30:10;;;;;;;29.65;12.93;;;4.80;99.90;;;;;;5034470;28;20128;-82
2022/04/27 04:32:40;;;;;;;21.17;11.25;;;4.80;99.90;;;;;;5019151;28;20073;-80
2022/04/27 04:35:07;;;;;;;18.08;12.02;;;4.90;99.90;;;;;;5038749;28;20049;-81
2022/04/27 04:37:32;;;;;;;21.95;11.90;;;4.90;99.90;;;;;;5038749;28;20048;-81
2022/04/27 04:39:58;;;;;;;21.10;12.43;;;4.90;99.90;;;;;;5038788;28;20579;-80
2022/04/27 04:42:24;;;;;;;22.40;12.75;;;4.90;99.90;;;;;;5038111;28;20044;-81
2022/04/27 04:44:49;;;;;;;23.90;13.93;;;5.00;99.90;;;;;;5037525;28;20457;-80
2022/04/27 04:47:15;;;;;;;20.58;11.98;;;5.00;99.90;;;;;;5041011;28;20097;-81
2022/04/27 04:49:40;;;;;;;18.50;11.88;;;5.00;99.90;;;;;;5057593;28;20068;-79
2022/04/27 04:52:09;;;;;;;19.95;11.45;;;5.10;99.90;;;;;;5059060;28;20072;-80
2022/04/27 04:54:35;;;;;;;21.15;12.40;;;5.10;99.90;;;;;;5056109;28;20037;-80
2022/04/27 04:57:01;;;;;;;18.65;11.45;;;5.10;99.90;;;;;;5038057;28;20049;-81
2022/04/27 04:59:26;;;;;;;24.67;11.70;;;5.20;99.90;;;;;;5039771;28;20049;-80
2022/04/27 05:01:53;;;;;;;21.77;12.90;;;5.20;99.90;;;;;;5039146;28;20048;-81
2022/04/27 05:04:18;;;;;;;25.90;13.07;;;5.30;99.90;;;;;;5039069;28;20045;-81
2022/04/27 05:06:46;;;;;;;21.42;12.10;;;5.30;99.90;;;;;;5038803;28;20128;-81
2022/04/27 05:09:12;;;;;;;20.65;11.82;;;5.40;99.90;;;;;;5037404;28;20080;-81
2022/04/27 05:11:37;;;;;;;19.15;11.40;;;5.90;99.90;;;;;;5038598;28;20488;-82
2022/04/27 05:14:03;;;;;;;20.95;11.35;;;5.50;99.90;;;;;;5038291;28;20052;-81
2022/04/27 05:16:31;;;;;;;24.00;12.95;;;5.50;99.90;;;;;;5037066;28;20477;-82
2022/04/27 05:18:56;;;;;;;21.95;12.38;;;5.60;99.90;;;;;;5053613;28;20045;-80
2022/04/27 05:21:22;;;;;;;22.23;12.05;;;5.70;99.90;;;;;;5037860;28;20041;-81
2022/04/27 05:23:48;;;;;;;21.83;12.27;;;5.80;99.90;;;;;;5037765;28;20500;-82
2022/04/27 05:26:13;;;;;;;22.48;10.93;;;5.80;99.90;;;;;;5037988;28;20079;-81
2022/04/27 05:34:07;;;;;;;23.42;12.18;;;6.00;99.90;;;;;;5036509;28;20107;-82
2022/04/27 05:36:32;;;;;;;19.73;11.82;;;6.20;99.90;;;;;;5037663;28;20568;-81
2022/04/27 05:38:58;;;;;;;23.48;12.27;;;6.20;99.90;;;;;;5020026;28;20045;-81
2022/04/27 05:41:24;;;;;;;23.60;11.25;;;6.30;99.90;;;;;;5038178;28;20076;-80
2022/04/27 05:43:49;;;;;;;20.90;11.77;;;6.40;99.90;;;;;;5020297;28;20045;-80
2022/04/27 05:46:15;;;;;;;22.23;10.52;;;6.40;99.90;;;;;;5038294;28;20045;-81
2022/04/27 05:48:40;;;;;;;18.98;10.45;;;7.60;99.90;;;;;;5038333;28;20076;-81
2022/04/27 05:51:06;;;;;;;19.05;11.00;;;6.70;99.90;;;;;;5035646;28;20068;-81
2022/04/27 05:53:32;;;;;;;18.65;10.63;;;6.80;99.90;;;;;;5037137;28;20045;-80
2022/04/27 05:55:57;;;;;;;16.48;10.15;;;6.90;99.90;;;;;;5037617;28;20045;-82
2022/04/27 05:58:24;;;;;;;17.00;10.35;;;7.00;99.90;;;;;;5037455;28;20429;-82
2022/04/27 06:00:51;;;;;;;19.90;10.35;;;7.10;99.90;;;;;;5037558;28;20615;-81
2022/04/27 06:03:16;;;;;;;16.42;10.27;;;7.20;99.90;;;;;;5037586;28;20041;-82
2022/04/27 06:05:42;;;;;;;14.48;8.95;;;7.30;99.90;;;;;;5036922;28;20402;-82
2022/04/27 06:08:09;;;;;;;13.38;9.27;;;7.80;99.90;;;;;;5036295;28;20037;-82
2022/04/27 06:10:35;;;;;;;15.57;9.45;;;7.60;99.90;;;;;;5036625;28;20077;-81
2022/04/27 06:13:01;;;;;;;13.27;8.75;;;7.80;99.90;;;;;;5037442;28;20041;-81
2022/04/27 06:15:27;;;;;;;16.27;9.50;;;7.80;99.90;;;;;;5037800;28;20049;-81
2022/04/27 06:17:52;;;;;;;12.55;8.85;;;8.00;99.90;;;;;;5038712;28;20551;-80
2022/04/27 06:20:18;;;;;;;15.60;8.98;;;8.10;99.90;;;;;;5036881;28;20041;-81
2022/04/27 06:22:44;;;;;;;12.20;8.00;;;8.20;99.90;;;;;;5042355;28;20393;-81
2022/04/27 06:25:10;;;;;;;13.85;8.75;;;8.50;99.90;;;;;;5032655;28;20042;-80
2022/04/27 06:27:36;;;;;;;12.90;7.45;;;8.50;99.90;;;;;;5050684;28;20052;-80
2022/04/27 06:30:02;;;;;;;16.40;8.10;;;8.60;99.90;;;;;;5055899;28;20038;-80
2022/04/27 06:32:32;;;;;;;13.02;7.05;;;8.70;99.90;;;;;;5055123;28;20096;-80
2022/04/27 06:35:01;;;;;;;11.98;6.95;;;8.80;99.90;;;;;;5051983;28;20049;-81
2022/04/27 06:37:27;;;;;;;12.32;7.07;;;8.90;99.90;;;;;;5049539;28;20049;-80
2022/04/27 06:39:52;;;;;;;13.38;6.28;;;9.00;99.90;;;;;;5041439;28;20488;-81
2022/04/27 06:42:22;;;;;;;12.45;6.45;;;9.10;99.90;;;;;;5044469;28;20101;-82
2022/04/27 06:44:48;;;;;;;11.85;6.43;;;9.30;99.90;;;;;;5048099;28;20041;-80
2022/04/27 06:47:14;;;;;;;13.95;6.07;;;9.40;99.90;;;;;;5046750;28;20042;-82
2022/04/27 06:49:40;;;;;;;9.13;5.20;;;9.50;99.90;;;;;;5046239;28;20093;-82
2022/04/27 06:52:06;;;;;;;9.65;5.35;;;9.60;99.90;;;;;;5040996;28;20065;-81
2022/04/27 06:54:32;;;;;;;11.07;4.90;;;9.60;99.90;;;;;;5035754;28;20049;-79
2022/04/27 06:56:58;;;;;;;8.30;5.13;;;9.70;99.90;;;;;;5055538;28;20042;-82
2022/04/27 06:59:24;;;;;;;10.32;5.15;;;9.90;99.90;;;;;;5058035;28;20045;-81
2022/04/27 07:01:50;;;;;;;13.88;5.43;;;10.00;99.90;;;;;;5074352;28;20037;-82
2022/04/27 07:04:16;;;;;;;9.50;5.53;;;10.10;99.90;;;;;;5058016;28;20057;-81
2022/04/27 07:06:42;;;;;;;7.45;5.38;;;10.30;99.90;;;;;;5057689;28;20097;-80
2022/04/27 07:09:10;;;;;;;8.70;4.43;;;10.40;99.90;;;;;;5072869;28;20045;-82
2022/04/27 07:11:36;;;;;;;7.10;4.45;;;10.50;99.90;;;;;;5047217;28;20358;-81
2022/04/27 07:14:02;;;;;;;9.10;3.95;;;10.70;99.90;;;;;;5036500;28;20394;-82
2022/04/27 07:16:28;;;;;;;10.65;4.13;;;10.80;99.90;;;;;;5035130;28;20116;-82
2022/04/27 07:18:55;;;;;;;8.63;2.83;;;11.00;99.90;;;;;;5034276;28;20128;-82
2022/04/27 07:21:20;;;;;;;8.27;3.25;;;11.10;99.90;;;;;;5033350;28;20053;-82
2022/04/27 07:23:46;;;;;;;5.53;2.13;;;11.10;99.90;;;;;;5033696;28;20041;-82
2022/04/27 07:26:12;;;;;;;5.20;2.30;;;11.20;99.90;;;;;;5032751;28;20041;-82
2022/04/27 07:28:43;;;;;;;5.50;3.08;;;11.20;99.90;;;;;;5030133;28;20095;-82
2022/04/27 07:31:09;;;;;;;7.40;2.22;;;11.20;99.90;;;;;;5031095;28;20388;-82
2022/04/27 07:33:34;;;;;;;7.35;2.50;;;11.20;99.90;;;;;;5031181;28;20401;-82
2022/04/27 07:36:00;;;;;;;6.25;3.20;;;11.90;97.30;;;;;;5030185;28;20046;-81
2022/04/27 07:38:27;;;;;;;3.90;2.30;;;11.20;98.20;;;;;;5031566;28;20038;-81
2022/04/27 07:40:53;;;;;;;6.70;2.78;;;11.20;98.10;;;;;;5031328;28;20111;-81
2022/04/27 07:43:21;;;;;;;8.60;2.72;;;11.10;93.20;;;;;;5031324;28;20050;-82
2022/04/27 07:45:50;;;;;;;4.82;1.85;;;11.10;92.70;;;;;;5013020;28;20080;-82
2022/04/27 07:48:16;;;;;;;4.47;2.15;;;11.20;92.90;;;;;;5030832;28;20084;-84
2022/04/27 07:50:44;;;;;;;6.97;1.80;;;11.30;92.60;;;;;;5013835;28;20077;-80
2022/04/27 07:53:10;;;;;;;3.75;1.80;;;12.10;83.70;;;;;;5031317;28;20053;-82
2022/04/27 07:55:35;;;;;;;4.43;1.90;;;11.40;84.90;;;;;;5031915;28;20413;-82
2022/04/27 07:58:01;;;;;;;6.18;1.75;;;11.60;83.70;;;;;;5031268;28;20058;-81
2022/04/27 08:00:27;;;;;;;6.05;1.50;;;11.70;76.10;;;;;;5031318;28;20045;-81
2022/04/27 08:02:55;;;;;;;6.68;1.52;;;11.80;69.80;;;;;;5029882;28;20053;-81
2022/04/27 08:05:21;;;;;;;7.93;2.25;;;11.90;66.40;;;;;;5030993;28;20041;-81
2022/04/27 08:07:46;;;;;;;5.20;1.50;;;12.00;60.60;;;;;;5035069;28;20473;-82
2022/04/27 08:10:17;;;;;;;4.25;1.65;;;12.20;63.10;;;;;;5035275;28;20045;-82
2022/04/27 08:12:47;;;;;;;5.10;1.58;;;12.50;59.50;;;;;;5034980;28;20053;-82
2022/04/27 08:15:14;;;;;;;6.78;1.60;;;12.70;55.50;;;;;;5034762;28;20099;-82
2022/04/27 08:17:59;;;;;;;5.13;1.60;;;12.70;45.10;;;;;;5035124;28;20128;-81
2022/04/27 08:23:21;;;;;;;5.95;1.60;;;12.90;42.90;;;;;;5014148;28;20076;-82
2022/04/27 08:25:48;;;;;;;8.10;1.80;;;13.10;44.10;;;;;;5029921;28;20065;-82
2022/04/27 08:28:15;;;;;;;10.43;2.20;;;13.30;39.60;;;;;;5034229;28;20042;-83
2022/04/27 08:30:43;;;;;;;4.78;1.75;;;13.40;31.00;;;;;;5034116;28;20049;-82
2022/04/27 08:33:10;;;;;;;4.55;2.03;;;13.20;34.00;;;;;;5033119;28;20067;-82
2022/04/27 08:35:36;;;;;;;6.65;1.77;;;13.50;28.90;;;;;;5034321;28;20049;-81
2022/04/27 08:38:06;;;;;;;7.35;1.65;;;13.20;28.10;;;;;;5033988;28;20034;-81
2022/04/27 08:40:35;;;;;;;5.25;1.67;;;13.30;31.90;;;;;;5032252;28;20049;-82
2022/04/27 08:43:01;;;;;;;5.93;1.60;;;13.80;27.90;;;;;;5033743;28;20554;-81
2022/04/27 08:45:28;;;;;;;3.97;1.50;;;13.50;25.40;;;;;;5033967;28;20049;-82
2022/04/27 08:47:55;;;;;;;8.00;2.20;;;13.50;27.20;;;;;;5033595;28;20037;-82
2022/04/27 08:50:23;;;;;;;7.70;2.08;;;13.30;22.80;;;;;;5033447;28;20038;-81
2022/04/27 08:52:50;;;;;;;3.15;1.25;;;13.50;27.20;;;;;;5034145;28;20405;-81
2022/04/27 08:55:16;;;;;;;5.30;1.67;;;13.70;25.20;;;;;;5034385;28;20079;-82
2022/04/27 08:57:45;;;;;;;5.68;1.75;;;13.70;21.30;;;;;;5034007;28;20056;-82
2022/04/27 09:00:15;;;;;;;7.93;2.00;;;13.60;22.70;;;;;;5034570;28;20040;-81
2022/04/27 09:02:42;;;;;;;4.07;1.42;;;13.10;23.40;;;;;;5035318;28;20042;-82
2022/04/27 09:05:10;;;;;;;7.05;1.35;;;13.30;27.30;;;;;;5037491;28;20044;-81
2022/04/27 09:07:39;;;;;;;7.55;1.75;;;13.50;25.10;;;;;;5049866;28;20033;-81
2022/04/27 09:10:07;;;;;;;5.65;1.48;;;12.50;24.10;;;;;;5051613;28;20042;-81
2022/04/27 09:12:43;;;;;;;4.45;1.58;;;12.50;24.50;;;;;;5052612;28;20119;-82
2022/04/27 09:15:09;;;;;;;9.07;2.60;;;12.20;25.70;;;;;;5052949;28;20105;-82
2022/04/27 09:23:19;;;;;;;7.53;1.48;;;12.30;32.10;;;;;;5034205;28;20041;-82
2022/04/27 09:25:45;;;;;;;5.40;1.58;;;12.60;26.70;;;;;;5031018;28;20053;-82
2022/04/27 09:28:11;;;;;;;5.95;1.83;;;12.30;29.20;;;;;;5033653;28;20042;-80
2022/04/27 09:30:36;;;;;;;6.00;1.45;;;12.50;29.10;;;;;;5032118;28;20045;-80
2022/04/27 09:33:02;;;;;;;6.82;1.45;;;12.30;26.80;;;;;;5033631;28;20116;-81
2022/04/27 09:35:37;;;;;;;9.05;1.42;;;12.10;28.70;;;;;;5033772;28;20037;-80
2022/04/27 09:38:16;;;;;;;9.32;2.28;;;12.20;31.10;;;;;;5034000;28;20052;-81
2022/04/27 09:40:47;;;;;;;5.00;1.50;;;12.20;28.50;;;;;;5031405;28;20124;-80
2022/04/27 09:43:16;;;;;;;8.82;1.67;;;12.60;32.90;;;;;;5031238;28;20045;-80
2022/04/27 09:45:43;;;;;;;6.72;1.55;;;12.80;28.30;;;;;;5033512;28;20045;-81
2022/04/27 09:48:11;;;;;;;5.20;1.70;;;12.60;27.10;;;;;;5049351;28;20456;-80
2022/04/27 09:50:52;;;;;;;8.85;1.65;;;12.40;29.30;;;;;;5032448;28;20047;-82
2022/04/27 09:53:19;;;;;;;6.07;1.83;;;12.90;28.40;;;;;;5030964;28;20029;-81
2022/04/27 09:55:51;;;;;;;8.25;1.60;;;12.80;27.90;;;;;;5038114;28;20048;-83
2022/04/27 09:58:19;;;;;;;4.70;1.70;;;13.90;26.50;;;;;;5035821;28;20096;-81
2022/04/27 10:00:46;;;;;;;7.32;2.25;;;13.10;24.90;;;;;;5036095;28;20041;-80
2022/04/27 10:03:18;;;;;;;7.93;2.58;;;12.90;26.30;;;;;;5053547;28;20018;-82
2022/04/27 10:05:45;;;;;;;5.13;1.70;;;13.30;26.70;;;;;;5057333;28;20033;-80
2022/04/27 10:08:10;;;;;;;6.28;1.50;;;13.10;24.60;;;;;;5042942;28;20045;-81
2022/04/27 10:10:44;;;;;;;5.38;1.92;;;13.50;24.20;;;;;;5040441;28;20037;-79
2022/04/27 10:13:12;;;;;;;7.68;1.95;;;13.80;22.40;;;;;;5053018;28;20033;-83
2022/04/27 10:15:45;;;;;;;6.80;1.75;;;13.80;22.70;;;;;;5058315;28;20032;-82
2022/04/27 10:18:15;;;;;;;12.13;2.47;;;13.60;19.10;;;;;;5057711;28;20109;-82
2022/04/27 10:20:41;;;;;;;7.35;1.65;;;13.90;22.30;;;;;;5057685;28;20042;-81
2022/04/27 10:23:16;;;;;;;7.47;1.60;;;14.70;23.30;;;;;;5056285;28;20055;-82
2022/04/27 10:26:05;;;;;;;326.75;26.73;;;13.70;19.90;;;;;;5056709;28;20061;-81
2022/04/27 10:28:33;;;;;;;16.77;2.40;;;13.80;22.30;;;;;;5032929;28;20038;-81
2022/04/27 10:31:01;;;;;;;8.88;2.28;;;14.70;23.50;;;;;;5033663;28;20512;-81
2022/04/27 10:33:50;;;;;;;6.63;2.10;;;14.50;19.40;;;;;;5000887;28;20056;-79
2022/04/27 10:36:34;;;;;;;7.85;2.60;;;14.80;18.00;;;;;;5026371;28;20528;-80
2022/04/27 10:39:12;;;;;;;13.13;2.90;;;14.60;16.80;;;;;;5032893;28;20038;-81
2022/04/27 10:42:03;;;;;;;8.55;2.60;;;14.50;18.50;;;;;;5028886;28;20057;-81
2022/04/27 10:44:47;;;;;;;8.38;2.85;;;14.50;17.50;;;;;;5019907;28;20100;-82
2022/04/27 10:47:14;;;;;;;10.73;2.30;;;14.70;19.20;;;;;;5021393;28;20049;-81
2022/04/27 10:49:40;;;;;;;8.57;2.22;;;15.00;18.00;;;;;;5033733;28;20049;-81
2022/04/27 10:52:08;;;;;;;8.77;2.33;;;14.60;20.40;;;;;;5033937;28;20560;-82
2022/04/27 10:54:39;;;;;;;8.18;2.25;;;15.80;20.20;;;;;;5031064;28;20121;-81
2022/04/27 10:57:14;;;;;;;10.00;3.33;;;15.20;18.20;;;;;;5016871;28;20045;-81
2022/04/27 10:59:49;;;;;;;7.80;2.53;;;15.10;17.70;;;;;;5017843;28;20054;-82
2022/04/27 11:02:33;;;;;;;6.72;2.00;;;15.00;18.50;;;;;;5016880;28;20133;-81
2022/04/27 11:05:00;;;;;;;6.80;2.10;;;16.00;18.40;;;;;;5016244;28;20044;-81
2022/04/27 11:07:31;;;;;;;8.50;1.95;;;15.00;18.50;;;;;;5016209;28;20494;-81
2022/04/27 11:10:16;;;;;;;6.53;1.77;;;14.90;17.40;;;;;;5015364;28;20045;-81
2022/04/27 11:12:46;;;;;;;6.15;1.95;;;14.60;21.30;;;;;;5014430;28;20176;-82
2022/04/27 11:15:15;;;;;;;8.02;2.33;;;14.80;21.70;;;;;;5015514;28;20049;-81
2022/04/27 11:17:41;;;;;;;10.65;2.30;;;14.20;23.10;;;;;;5015925;28;20133;-81
2022/04/27 11:20:22;;;;;;;12.23;2.58;;;14.10;27.10;;;;;;5015538;28;20077;-82
2022/04/27 11:22:49;;;;;;;8.25;2.00;;;13.90;29.30;;;;;;5013701;28;20045;-82
2022/04/27 11:25:23;;;;;;;6.10;1.77;;;13.80;31.80;;;;;;5016116;28;20069;-81
2022/04/27 11:27:48;;;;;;;8.02;2.45;;;13.80;33.00;;;;;;5014444;28;20082;-81
2022/04/27 11:30:15;;;;;;;10.18;2.63;;;13.70;35.70;;;;;;5014636;28;20461;-80
2022/04/27 11:32:44;;;;;;;13.85;2.45;;;13.80;36.10;;;;;;5013864;28;20049;-80
2022/04/27 11:35:10;;;;;;;12.60;2.50;;;14.00;32.20;;;;;;5014766;28;20049;-82
2022/04/27 11:37:37;;;;;;;11.82;3.08;;;13.90;31.80;;;;;;5015485;28;20038;-81
2022/04/27 11:40:17;;;;;;;7.93;2.70;;;13.80;39.20;;;;;;5015665;28;20042;-81
2022/04/27 11:42:47;;;;;;;9.80;2.55;;;14.10;35.50;;;;;;5016450;28;20058;-82
2022/04/27 11:45:21;;;;;;;14.02;2.30;;;14.30;36.00;;;;;;5030540;28;20134;-81
2022/04/27 11:48:04;;;;;;;13.80;2.75;;;14.20;29.70;;;;;;5031989;28;20050;-81
2022/04/27 11:50:32;;;;;;;9.13;3.33;;;14.30;33.60;;;;;;5032251;28;20061;-81
2022/04/27 11:52:59;;;;;;;11.02;2.90;;;14.60;30.80;;;;;;5037214;28;20092;-80
2022/04/27 11:55:25;;;;;;;16.58;2.90;;;14.80;29.50;;;;;;5052562;28;20490;-82
2022/04/27 11:57:51;;;;;;;8.73;2.45;;;14.60;28.10;;;;;;5045283;28;20129;-80
2022/04/27 12:00:21;;;;;;;29.08;3.15;;;14.60;28.50;;;;;;5029809;28;20415;-80
2022/04/27 12:03:06;;;;;;;20.42;3.15;;;14.60;27.10;;;;;;5094111;27;20466;-81
2022/04/27 12:05:34;;;;;;;11.82;2.45;;;14.40;28.40;;;;;;5091983;28;20131;-82
2022/04/27 12:08:07;;;;;;;12.15;3.05;;;14.00;33.80;;;;;;5091144;28;20092;-80
2022/04/27 12:10:38;;;;;;;11.20;2.50;;;13.80;35.30;;;;;;5092092;28;20409;-80
2022/04/27 12:13:04;;;;;;;16.25;3.20;;;13.50;34.40;;;;;;5091656;28;20494;-81
2022/04/27 12:15:29;;;;;;;9.45;2.40;;;13.30;42.40;;;;;;5091877;28;20036;-81
2022/04/27 12:17:58;;;;;;;11.23;2.60;;;13.00;47.90;;;;;;5091590;28;20051;-80
2022/04/27 12:20:30;;;;;;;9.00;1.85;;;12.60;50.20;;;;;;5091940;28;20044;-82
2022/04/27 12:23:00;;;;;;;16.60;2.83;;;12.90;54.10;;;;;;5091887;28;20044;-81
2022/04/27 12:25:55;;;;;;;9.43;2.30;;;13.30;50.00;;;;;;5091538;28;20044;-81
2022/04/27 12:28:26;;;;;;;9.38;2.15;;;13.30;42.30;;;;;;5092456;28;20105;-81
2022/04/27 12:30:56;;;;;;;11.95;2.70;;;12.90;48.40;;;;;;5092887;28;20371;-81
2022/04/27 12:33:39;;;;;;;14.80;3.38;;;12.50;55.00;;;;;;5090288;28;20095;-80
2022/04/27 12:39:06;;;;;;;12.50;2.63;;;12.30;61.30;;;;;;5091628;28;20049;-80
2022/04/27 12:41:43;;;;;;;11.15;2.78;;;12.40;58.50;;;;;;5090180;28;20044;-80
2022/04/27 12:44:14;;;;;;;16.55;3.97;;;12.30;57.00;;;;;;5091456;28;20048;-81
2022/04/27 12:46:58;;;;;;;11.88;3.08;;;12.50;59.60;;;;;;5091535;28;20040;-81
2022/04/27 12:49:37;;;;;;;10.90;2.67;;;12.40;57.40;;;;;;5090058;28;20105;-82
2022/04/27 12:52:23;;;;;;;9.68;2.33;;;12.60;54.50;;;;;;5091000;28;20040;-81
2022/04/27 12:55:00;;;;;;;11.00;2.75;;;12.90;55.80;;;;;;5091315;28;20548;-82
2022/04/27 12:57:25;;;;;;;14.63;2.35;;;12.70;49.60;;;;;;5078357;28;20394;-80
2022/04/27 12:59:59;;;;;;;11.55;2.30;;;13.00;49.70;;;;;;5071381;28;20388;-81
2022/04/27 13:02:25;;;;;;;9.60;2.20;;;13.50;41.60;;;;;;5069312;28;20057;-81
2022/04/27 13:04:52;;;;;;;8.82;2.35;;;13.70;36.60;;;;;;5070707;28;20052;-79
2022/04/27 13:07:18;;;;;;;10.75;2.47;;;13.60;34.80;;;;;;5070640;28;20102;-80
2022/04/27 13:12:33;;;;;;;13.48;3.10;;;13.80;30.00;;;;;;5058234;28;20100;-79